sensor_id;sensor_type;location;lat;lon;timestamp;pressure;altitude;pressure_sealevel;temperature;humidity
41312;BME280;27061;41.648;24.568;2023-10-08T00:02:25;86342.25;;;11.33;53.96
41312;BME280;27061;41.648;24.568;2023-10-08T00:04:53;86388.41;;;11.67;54.38
41312;BME280;27061;41.648;24.568;2023-10-08T00:07:24;86336.75;;;11.25;54.28
41312;BME280;27061;41.648;24.568;2023-10-08T00:09:52;86353.25;;;11.41;54.34
41312;BME280;27061;41.648;24.568;2023-10-08T00:12:20;86380.78;;;11.65;53.80
41312;BME280;27061;41.648;24.568;2023-10-08T00:14:47;86328.47;;;11.19;54.01
41312;BME280;27061;41.648;24.568;2023-10-08T00:17:20;86372.53;;;11.57;53.72
41312;BME280;27061;41.648;24.568;2023-10-08T00:19:48;86372.63;;;11.47;53.58
41312;BME280;27061;41.648;24.568;2023-10-08T00:22:20;86369.81;;;11.49;54.34
41312;BME280;27061;41.648;24.568;2023-10-08T00:24:47;86321.56;;;11.14;54.79
41312;BME280;27061;41.648;24.568;2023-10-08T00:27:16;86362.38;;;11.27;55.13
41312;BME280;27061;41.648;24.568;2023-10-08T00:29:44;86301.69;;;10.85;55.39
41312;BME280;27061;41.648;24.568;2023-10-08T00:32:12;86351.94;;;11.32;55.20
41312;BME280;27061;41.648;24.568;2023-10-08T00:34:41;86330.72;;;10.98;55.75
41312;BME280;27061;41.648;24.568;2023-10-08T00:37:10;86329.38;;;10.91;55.68
41312;BME280;27061;41.648;24.568;2023-10-08T00:39:38;86318.97;;;10.91;55.81
41312;BME280;27061;41.648;24.568;2023-10-08T00:42:07;86356.88;;;11.21;54.91
41312;BME280;27061;41.648;24.568;2023-10-08T00:44:38;86333.47;;;10.98;55.04
41312;BME280;27061;41.648;24.568;2023-10-08T00:47:16;86306.56;;;10.82;55.09
41312;BME280;27061;41.648;24.568;2023-10-08T00:49:48;86352.09;;;11.10;55.13
41312;BME280;27061;41.648;24.568;2023-10-08T00:52:22;86341.00;;;11.12;55.04
41312;BME280;27061;41.648;24.568;2023-10-08T00:55:08;86329.97;;;11.04;54.96
41312;BME280;27061;41.648;24.568;2023-10-08T00:57:42;86339.66;;;11.05;55.41
41312;BME280;27061;41.648;24.568;2023-10-08T01:00:14;86330.72;;;10.92;56.06
41312;BME280;27061;41.648;24.568;2023-10-08T01:02:49;86327.31;;;10.83;56.05
41312;BME280;27061;41.648;24.568;2023-10-08T01:05:22;86251.56;;;10.23;56.06
41312;BME280;27061;41.648;24.568;2023-10-08T01:08:04;86331.41;;;10.92;56.23
41312;BME280;27061;41.648;24.568;2023-10-08T01:10:35;86276.34;;;10.42;56.62
41312;BME280;27061;41.648;24.568;2023-10-08T01:13:02;86266.78;;;10.22;57.31
41312;BME280;27061;41.648;24.568;2023-10-08T01:15:40;86290.19;;;10.42;57.28
41312;BME280;27061;41.648;24.568;2023-10-08T01:18:09;86266.78;;;10.24;57.49
41312;BME280;27061;41.648;24.568;2023-10-08T01:20:42;86250.19;;;10.12;57.52
41312;BME280;27061;41.648;24.568;2023-10-08T01:23:20;86317.13;;;10.53;58.06
41312;BME280;27061;41.648;24.568;2023-10-08T01:25:49;86298.47;;;10.46;57.74
41312;BME280;27061;41.648;24.568;2023-10-08T01:28:37;86309.50;;;10.56;57.84
41312;BME280;27061;41.648;24.568;2023-10-08T01:31:05;86295.72;;;10.42;57.92
41312;BME280;27061;41.648;24.568;2023-10-08T01:33:35;86270.91;;;10.23;57.72
41312;BME280;27061;41.648;24.568;2023-10-08T01:36:13;86317.75;;;10.60;57.54
41312;BME280;27061;41.648;24.568;2023-10-08T01:38:41;86317.75;;;10.60;57.55
41312;BME280;27061;41.648;24.568;2023-10-08T01:41:16;86320.63;;;10.48;58.11
41312;BME280;27061;41.648;24.568;2023-10-08T01:43:47;86313.72;;;10.47;58.16
41312;BME280;27061;41.648;24.568;2023-10-08T01:46:15;86281.97;;;10.27;57.98
41312;BME280;27061;41.648;24.568;2023-10-08T01:48:43;86299.88;;;10.45;57.64
41312;BME280;27061;41.648;24.568;2023-10-08T01:51:12;86308.13;;;10.53;57.69
41312;BME280;27061;41.648;24.568;2023-10-08T01:53:53;86313.72;;;10.47;57.92
41312;BME280;27061;41.648;24.568;2023-10-08T01:56:21;86317.16;;;10.45;57.96
41312;BME280;27061;41.648;24.568;2023-10-08T01:58:48;86315.09;;;10.44;58.16
41312;BME280;27061;41.648;24.568;2023-10-08T02:01:20;86315.16;;;10.36;58.63
41312;BME280;27061;41.648;24.568;2023-10-08T02:03:47;86319.31;;;10.31;58.66
41312;BME280;27061;41.648;24.568;2023-10-08T02:06:15;86317.94;;;10.27;59.02
41312;BME280;27061;41.648;24.568;2023-10-08T02:08:43;86315.84;;;10.32;58.69
41312;BME280;27061;41.648;24.568;2023-10-08T02:11:10;86229.66;;;9.65;58.48
41312;BME280;27061;41.648;24.568;2023-10-08T02:13:37;86243.44;;;9.75;58.14
41312;BME280;27061;41.648;24.568;2023-10-08T02:16:05;86302.75;;;10.14;58.47
41312;BME280;27061;41.648;24.568;2023-10-08T02:18:34;86293.13;;;9.99;59.99
41312;BME280;27061;41.648;24.568;2023-10-08T02:21:02;86263.47;;;9.79;59.93
41312;BME280;27061;41.648;24.568;2023-10-08T02:23:29;86306.91;;;10.15;60.00
41312;BME280;27061;41.648;24.568;2023-10-08T02:25:57;86230.38;;;9.57;60.08
41312;BME280;27061;41.648;24.568;2023-10-08T02:28:25;86240.00;;;9.64;59.77
41312;BME280;27061;41.648;24.568;2023-10-08T02:30:53;86229.69;;;9.61;59.83
41312;BME280;27061;41.648;24.568;2023-10-08T02:33:20;86290.34;;;10.05;59.52
41312;BME280;27061;41.648;24.568;2023-10-08T02:35:48;86260.06;;;9.69;60.17
41312;BME280;27061;41.648;24.568;2023-10-08T02:38:17;86291.75;;;9.98;59.83
41312;BME280;27061;41.648;24.568;2023-10-08T02:40:45;86270.34;;;9.86;60.14
41312;BME280;27061;41.648;24.568;2023-10-08T02:43:16;86258.63;;;9.78;59.91
41312;BME280;27061;41.648;24.568;2023-10-08T02:45:45;86285.53;;;9.98;59.82
41312;BME280;27061;41.648;24.568;2023-10-08T02:48:17;86260.03;;;9.75;59.46
41312;BME280;27061;41.648;24.568;2023-10-08T02:50:45;86235.22;;;9.57;59.43
41312;BME280;27061;41.648;24.568;2023-10-08T02:53:14;86253.13;;;9.74;58.95
41312;BME280;27061;41.648;24.568;2023-10-08T02:55:53;86203.53;;;9.29;59.49
41312;BME280;27061;41.648;24.568;2023-10-08T02:58:20;86257.31;;;9.63;60.00
41312;BME280;27061;41.648;24.568;2023-10-08T03:00:49;86276.66;;;9.69;60.04
41312;BME280;27061;41.648;24.568;2023-10-08T03:03:17;86290.41;;;9.89;59.88
41312;BME280;27061;41.648;24.568;2023-10-08T03:05:52;86283.50;;;9.86;60.23
41312;BME280;27061;41.648;24.568;2023-10-08T03:08:19;86254.59;;;9.52;60.54
41312;BME280;27061;41.648;24.568;2023-10-08T03:10:50;86284.22;;;9.80;60.37
41312;BME280;27061;41.648;24.568;2023-10-08T03:13:23;86279.41;;;9.71;60.67
41312;BME280;27061;41.648;24.568;2023-10-08T03:15:53;86276.66;;;9.67;60.92
41312;BME280;27061;41.648;24.568;2023-10-08T03:18:30;86193.25;;;8.99;61.30
41312;BME280;27061;41.648;24.568;2023-10-08T03:21:06;86255.97;;;9.47;61.50
41312;BME280;27061;41.648;24.568;2023-10-08T03:23:51;86218.09;;;8.99;62.40
41312;BME280;27061;41.648;24.568;2023-10-08T03:26:20;86268.41;;;9.44;62.16
41312;BME280;27061;41.648;24.568;2023-10-08T03:29:05;86264.97;;;9.38;62.42
41312;BME280;27061;41.648;24.568;2023-10-08T03:31:43;86258.06;;;9.37;62.33
41312;BME280;27061;41.648;24.568;2023-10-08T03:34:19;86258.75;;;9.39;62.61
41312;BME280;27061;41.648;24.568;2023-10-08T03:36:48;86258.72;;;9.45;62.07
41312;BME280;27061;41.648;24.568;2023-10-08T03:39:17;86225.66;;;9.17;61.33
41312;BME280;27061;41.648;24.568;2023-10-08T03:41:46;86254.59;;;9.50;60.97
41312;BME280;27061;41.648;24.568;2023-10-08T03:44:33;86228.41;;;9.23;60.74
41312;BME280;27061;41.648;24.568;2023-10-08T03:47:04;86237.38;;;9.30;60.82
41312;BME280;27061;41.648;24.568;2023-10-08T03:49:38;86221.50;;;9.16;60.52
41312;BME280;27061;41.648;24.568;2023-10-08T03:52:12;86270.44;;;9.54;60.57
41312;BME280;27061;41.648;24.568;2023-10-08T03:54:40;86238.06;;;9.28;60.46
41312;BME280;27061;41.648;24.568;2023-10-08T03:57:15;86191.16;;;9.02;60.16
41312;BME280;27061;41.648;24.568;2023-10-08T03:59:52;86260.13;;;9.50;60.38
41312;BME280;27061;41.648;24.568;2023-10-08T04:02:26;86255.97;;;9.49;60.05
41312;BME280;27061;41.648;24.568;2023-10-08T04:05:07;86242.22;;;9.29;60.57
41312;BME280;27061;41.648;24.568;2023-10-08T04:07:55;86269.78;;;9.49;61.09
41312;BME280;27061;41.648;24.568;2023-10-08T04:10:31;86244.97;;;9.31;60.65
41312;BME280;27061;41.648;24.568;2023-10-08T04:13:05;86251.88;;;9.28;60.19
41312;BME280;27061;41.648;24.568;2023-10-08T04:15:36;86264.25;;;9.43;59.87
41312;BME280;27061;41.648;24.568;2023-10-08T04:18:09;86246.34;;;9.30;59.52
41312;BME280;27061;41.648;24.568;2023-10-08T04:20:39;86280.84;;;9.43;60.29
41312;BME280;27061;41.648;24.568;2023-10-08T04:23:08;86282.25;;;9.38;61.33
41312;BME280;27061;41.648;24.568;2023-10-08T04:25:45;86257.41;;;9.16;61.19
41312;BME280;27061;41.648;24.568;2023-10-08T04:28:14;86262.25;;;9.22;61.03
41312;BME280;27061;41.648;24.568;2023-10-08T04:30:47;86286.41;;;9.35;60.71
41312;BME280;27061;41.648;24.568;2023-10-08T04:33:15;86245.00;;;9.11;60.37
41312;BME280;27061;41.648;24.568;2023-10-08T04:35:43;86179.50;;;8.42;60.80
41312;BME280;27061;41.648;24.568;2023-10-08T04:38:24;86235.38;;;8.86;60.46
41312;BME280;27061;41.648;24.568;2023-10-08T04:40:58;86218.81;;;8.77;59.94
41312;BME280;27061;41.648;24.568;2023-10-08T04:43:29;86227.78;;;8.76;60.06
41312;BME280;27061;41.648;24.568;2023-10-08T04:46:00;86261.59;;;8.95;60.74
41312;BME280;27061;41.648;24.568;2023-10-08T04:48:32;86232.63;;;8.77;61.14
41312;BME280;27061;41.648;24.568;2023-10-08T04:51:00;86224.34;;;8.75;60.99
41312;BME280;27061;41.648;24.568;2023-10-08T04:53:33;86285.03;;;9.18;61.26
41312;BME280;27061;41.648;24.568;2023-10-08T04:56:06;86266.41;;;9.06;61.37
41312;BME280;27061;41.648;24.568;2023-10-08T04:58:40;86248.47;;;8.81;61.54
41312;BME280;27061;41.648;24.568;2023-10-08T05:01:08;86279.53;;;9.08;62.12
41312;BME280;27061;41.648;24.568;2023-10-08T05:03:49;86133.25;;;8.06;62.08
41312;BME280;27061;41.648;24.568;2023-10-08T05:06:28;86285.03;;;9.20;61.72
41312;BME280;27061;41.648;24.568;2023-10-08T05:09:10;86275.38;;;9.19;62.46
41312;BME280;27061;41.648;24.568;2023-10-08T05:11:39;86278.13;;;9.23;62.29
41312;BME280;27061;41.648;24.568;2023-10-08T05:14:21;86287.78;;;9.22;62.63
41312;BME280;27061;41.648;24.568;2023-10-08T05:17:07;86219.50;;;8.66;62.51
41312;BME280;27061;41.648;24.568;2023-10-08T05:19:49;86118.09;;;7.87;62.54
41312;BME280;27061;41.648;24.568;2023-10-08T05:22:25;86243.63;;;9.04;62.43
41312;BME280;27061;41.648;24.568;2023-10-08T05:24:57;86262.25;;;9.15;62.57
41312;BME280;27061;41.648;24.568;2023-10-08T05:27:44;86249.81;;;9.16;62.34
41312;BME280;27061;41.648;24.568;2023-10-08T05:30:21;86293.25;;;9.59;61.67
41312;BME280;27061;41.648;24.568;2023-10-08T05:33:06;86249.09;;;9.34;61.84
41312;BME280;27061;41.648;24.568;2023-10-08T05:35:43;86253.91;;;9.46;61.34
41312;BME280;27061;41.648;24.568;2023-10-08T05:38:14;86294.56;;;9.82;60.73
41312;BME280;27061;41.648;24.568;2023-10-08T05:40:58;86298.69;;;9.91;63.11
41312;BME280;27061;41.648;24.568;2023-10-08T05:43:33;86291.72;;;10.06;58.46
41312;BME280;27061;41.648;24.568;2023-10-08T05:46:21;86293.06;;;10.19;56.36
41312;BME280;27061;41.648;24.568;2023-10-08T05:48:49;86291.63;;;10.35;56.95
41312;BME280;27061;41.648;24.568;2023-10-08T05:51:31;86287.44;;;10.42;56.72
41312;BME280;27061;41.648;24.568;2023-10-08T05:54:24;86299.75;;;10.69;53.40
41312;BME280;27061;41.648;24.568;2023-10-08T05:57:08;86303.78;;;10.84;54.30
41312;BME280;27061;41.648;24.568;2023-10-08T06:02:26;86309.09;;;11.17;52.56
41312;BME280;27061;41.648;24.568;2023-10-08T06:05:05;86282.06;;;11.19;49.36
41312;BME280;27061;41.648;24.568;2023-10-08T06:07:45;86285.44;;;11.32;50.55
41312;BME280;27061;41.648;24.568;2023-10-08T06:10:26;86316.28;;;11.67;48.54
41312;BME280;27061;41.648;24.568;2023-10-08T06:12:54;86308.56;;;11.82;49.17
41312;BME280;27061;41.648;24.568;2023-10-08T06:15:33;86238.25;;;11.38;48.13
41312;BME280;27061;41.648;24.568;2023-10-08T06:18:20;86291.25;;;11.79;49.84
41312;BME280;27061;41.648;24.568;2023-10-08T06:20:49;86280.88;;;11.76;50.73
41312;BME280;27061;41.648;24.568;2023-10-08T06:23:22;86301.31;;;12.09;49.01
41312;BME280;27061;41.648;24.568;2023-10-08T06:25:53;86310.09;;;12.32;47.44
41312;BME280;27061;41.648;24.568;2023-10-08T06:28:26;86288.69;;;12.24;50.26
41312;BME280;27061;41.648;24.568;2023-10-08T06:30:54;86314.22;;;12.35;50.94
41312;BME280;27061;41.648;24.568;2023-10-08T06:33:24;86313.34;;;12.51;48.21
41312;BME280;27061;41.648;24.568;2023-10-08T06:35:58;86326.38;;;12.64;47.03
41312;BME280;27061;41.648;24.568;2023-10-08T06:38:30;86317.97;;;12.70;46.55
41312;BME280;27061;41.648;24.568;2023-10-08T06:40:59;86323.88;;;12.95;46.67
41312;BME280;27061;41.648;24.568;2023-10-08T06:43:37;86312.91;;;12.85;47.13
41312;BME280;27061;41.648;24.568;2023-10-08T06:46:05;86321.81;;;12.94;47.37
41312;BME280;27061;41.648;24.568;2023-10-08T06:48:34;86321.03;;;13.01;46.00
41312;BME280;27061;41.648;24.568;2023-10-08T06:51:02;86300.22;;;12.98;43.60
41312;BME280;27061;41.648;24.568;2023-10-08T06:53:40;86270.41;;;12.93;43.71
41312;BME280;27061;41.648;24.568;2023-10-08T06:56:08;86290.41;;;13.03;44.58
41312;BME280;27061;41.648;24.568;2023-10-08T06:58:39;86309.50;;;13.32;43.89
41312;BME280;27061;41.648;24.568;2023-10-08T07:01:12;86318.78;;;13.59;42.69
41312;BME280;27061;41.648;24.568;2023-10-08T07:03:40;86308.97;;;13.66;44.66
41312;BME280;27061;41.648;24.568;2023-10-08T07:06:08;86328.75;;;13.89;41.73
41312;BME280;27061;41.648;24.568;2023-10-08T07:08:44;86309.91;;;13.91;41.91
41312;BME280;27061;41.648;24.568;2023-10-08T07:11:22;86297.44;;;13.88;41.06
41312;BME280;27061;41.648;24.568;2023-10-08T07:13:50;86297.09;;;14.09;40.57
41312;BME280;27061;41.648;24.568;2023-10-08T07:16:18;86314.84;;;14.28;45.24
41312;BME280;27061;41.648;24.568;2023-10-08T07:18:46;86304.88;;;14.41;43.42
41312;BME280;27061;41.648;24.568;2023-10-08T07:21:20;86238.94;;;13.92;45.40
41312;BME280;27061;41.648;24.568;2023-10-08T07:23:56;86290.75;;;14.51;42.24
41312;BME280;27061;41.648;24.568;2023-10-08T07:26:26;86300.03;;;14.75;41.97
41312;BME280;27061;41.648;24.568;2023-10-08T07:29:05;86261.19;;;14.67;44.20
41312;BME280;27061;41.648;24.568;2023-10-08T07:31:37;86303.44;;;15.12;45.89
41312;BME280;27061;41.648;24.568;2023-10-08T07:34:09;86259.75;;;15.02;46.14
41312;BME280;27061;41.648;24.568;2023-10-08T07:36:47;86266.94;;;15.24;43.88
41312;BME280;27061;41.648;24.568;2023-10-08T07:39:21;86295.56;;;15.54;46.04
41312;BME280;27061;41.648;24.568;2023-10-08T07:41:54;86292.34;;;15.72;44.02
41312;BME280;27061;41.648;24.568;2023-10-08T07:44:23;86293.44;;;15.85;45.22
41312;BME280;27061;41.648;24.568;2023-10-08T07:46:51;86273.84;;;15.87;46.46
41312;BME280;27061;41.648;24.568;2023-10-08T07:49:19;86303.25;;;16.11;45.71
41312;BME280;27061;41.648;24.568;2023-10-08T07:51:46;86291.06;;;16.25;44.01
41312;BME280;27061;41.648;24.568;2023-10-08T07:54:19;86304.19;;;16.30;45.81
41312;BME280;27061;41.648;24.568;2023-10-08T07:56:50;86280.22;;;16.39;46.95
41312;BME280;27061;41.648;24.568;2023-10-08T07:59:26;86297.81;;;16.61;46.30
41312;BME280;27061;41.648;24.568;2023-10-08T08:01:54;86289.81;;;16.73;45.55
41312;BME280;27061;41.648;24.568;2023-10-08T08:04:22;86289.59;;;16.81;45.53
41312;BME280;27061;41.648;24.568;2023-10-08T08:06:50;86269.19;;;16.85;45.06
41312;BME280;27061;41.648;24.568;2023-10-08T08:09:17;86248.84;;;16.89;46.23
41312;BME280;27061;41.648;24.568;2023-10-08T08:11:46;86276.50;;;17.24;44.17
41312;BME280;27061;41.648;24.568;2023-10-08T08:14:15;86277.56;;;17.35;45.90
41312;BME280;27061;41.648;24.568;2023-10-08T08:16:44;86277.91;;;17.47;43.20
41312;BME280;27061;41.648;24.568;2023-10-08T08:19:15;86278.88;;;17.61;42.51
41312;BME280;27061;41.648;24.568;2023-10-08T08:21:43;86247.03;;;17.49;45.29
41312;BME280;27061;41.648;24.568;2023-10-08T08:24:14;86285.69;;;17.90;45.63
41312;BME280;27061;41.648;24.568;2023-10-08T08:26:55;86273.63;;;17.96;44.57
41312;BME280;27061;41.648;24.568;2023-10-08T08:29:35;86278.88;;;18.06;43.20
41312;BME280;27061;41.648;24.568;2023-10-08T08:32:12;86279.13;;;18.21;44.07
41312;BME280;27061;41.648;24.568;2023-10-08T08:34:49;86240.00;;;17.96;43.38
41312;BME280;27061;41.648;24.568;2023-10-08T08:37:20;86273.78;;;18.34;44.20
41312;BME280;27061;41.648;24.568;2023-10-08T08:39:53;86246.88;;;18.22;42.64
41312;BME280;27061;41.648;24.568;2023-10-08T08:42:22;86265.31;;;18.56;44.11
41312;BME280;27061;41.648;24.568;2023-10-08T08:44:55;86270.06;;;18.62;42.53
41312;BME280;27061;41.648;24.568;2023-10-08T08:47:25;86265.47;;;18.73;41.82
41312;BME280;27061;41.648;24.568;2023-10-08T08:49:56;86225.19;;;18.62;44.38
41312;BME280;27061;41.648;24.568;2023-10-08T08:52:27;86273.25;;;18.91;44.05
41312;BME280;27061;41.648;24.568;2023-10-08T08:54:55;86279.66;;;19.09;45.16
41312;BME280;27061;41.648;24.568;2023-10-08T08:57:22;86212.31;;;18.69;41.95
41312;BME280;27061;41.648;24.568;2023-10-08T08:59:53;86240.59;;;19.02;43.31
41312;BME280;27061;41.648;24.568;2023-10-08T09:02:21;86190.28;;;18.57;42.51
41312;BME280;27061;41.648;24.568;2023-10-08T09:04:49;86260.63;;;19.30;43.67
41312;BME280;27061;41.648;24.568;2023-10-08T09:07:20;86270.13;;;19.39;44.17
41312;BME280;27061;41.648;24.568;2023-10-08T09:09:57;86250.25;;;19.26;42.94
41312;BME280;27061;41.648;24.568;2023-10-08T09:12:26;86260.00;;;19.48;42.01
41312;BME280;27061;41.648;24.568;2023-10-08T09:15:00;86269.16;;;19.65;41.27
41312;BME280;27061;41.648;24.568;2023-10-08T09:17:29;86248.38;;;19.58;41.59
41312;BME280;27061;41.648;24.568;2023-10-08T09:19:57;86268.47;;;19.84;43.40
41312;BME280;27061;41.648;24.568;2023-10-08T09:22:26;86259.06;;;19.72;40.31
41312;BME280;27061;41.648;24.568;2023-10-08T09:24:55;86268.16;;;19.92;42.67
41312;BME280;27061;41.648;24.568;2023-10-08T09:27:26;86272.03;;;20.01;43.13
41312;BME280;27061;41.648;24.568;2023-10-08T09:29:54;86258.56;;;20.03;41.21
41312;BME280;27061;41.648;24.568;2023-10-08T09:32:22;86268.50;;;20.19;41.97
41312;BME280;27061;41.648;24.568;2023-10-08T09:34:52;86244.88;;;20.12;44.19
41312;BME280;27061;41.648;24.568;2023-10-08T09:37:21;86251.97;;;20.28;41.79
41312;BME280;27061;41.648;24.568;2023-10-08T09:39:49;86266.00;;;20.46;41.56
41312;BME280;27061;41.648;24.568;2023-10-08T09:42:19;86264.41;;;20.52;41.89
41312;BME280;27061;41.648;24.568;2023-10-08T09:44:49;86242.13;;;20.45;42.58
41312;BME280;27061;41.648;24.568;2023-10-08T09:47:21;86232.94;;;20.47;41.26
41312;BME280;27061;41.648;24.568;2023-10-08T09:49:57;86205.50;;;20.48;42.17
41312;BME280;27061;41.648;24.568;2023-10-08T09:52:34;86235.06;;;20.80;41.92
41312;BME280;27061;41.648;24.568;2023-10-08T09:55:09;86244.00;;;21.01;41.37
41312;BME280;27061;41.648;24.568;2023-10-08T09:57:39;86231.22;;;21.04;42.97
41312;BME280;27061;41.648;24.568;2023-10-08T10:00:08;86225.41;;;21.08;42.82
41312;BME280;27061;41.648;24.568;2023-10-08T10:02:42;86213.13;;;20.99;42.20
41312;BME280;27061;41.648;24.568;2023-10-08T10:05:11;86180.91;;;20.96;41.81
41312;BME280;27061;41.648;24.568;2023-10-08T10:07:40;86214.47;;;21.34;42.27
41312;BME280;27061;41.648;24.568;2023-10-08T10:10:28;86226.47;;;21.49;43.54
41312;BME280;27061;41.648;24.568;2023-10-08T10:13:08;86191.03;;;21.23;40.95
41312;BME280;27061;41.648;24.568;2023-10-08T10:15:42;86189.56;;;21.24;42.52
41312;BME280;27061;41.648;24.568;2023-10-08T10:18:27;86237.19;;;21.61;41.58
41312;BME280;27061;41.648;24.568;2023-10-08T10:23:41;86184.75;;;21.37;39.71
41312;BME280;27061;41.648;24.568;2023-10-08T10:26:32;86218.06;;;21.78;39.91
41312;BME280;27061;41.648;24.568;2023-10-08T10:31:38;86181.88;;;21.53;40.30
41312;BME280;27061;41.648;24.568;2023-10-08T10:34:09;86213.50;;;21.85;39.36
41312;BME280;27061;41.648;24.568;2023-10-08T10:36:37;86146.63;;;21.40;39.89
41312;BME280;27061;41.648;24.568;2023-10-08T10:39:06;86208.47;;;21.88;41.08
41312;BME280;27061;41.648;24.568;2023-10-08T10:41:44;86192.72;;;21.93;39.93
41312;BME280;27061;41.648;24.568;2023-10-08T10:44:13;86195.56;;;22.08;39.57
41312;BME280;27061;41.648;24.568;2023-10-08T10:46:45;86199.47;;;22.15;38.77
41312;BME280;27061;41.648;24.568;2023-10-08T10:49:18;86188.47;;;22.09;38.90
41312;BME280;27061;41.648;24.568;2023-10-08T10:51:50;86189.34;;;22.20;40.34
41312;BME280;27061;41.648;24.568;2023-10-08T10:54:24;86163.66;;;21.97;38.24
41312;BME280;27061;41.648;24.568;2023-10-08T10:56:53;86185.47;;;22.27;39.51
41312;BME280;27061;41.648;24.568;2023-10-08T10:59:45;86184.31;;;22.22;38.28
41312;BME280;27061;41.648;24.568;2023-10-08T11:02:20;86166.13;;;22.19;38.85
41312;BME280;27061;41.648;24.568;2023-10-08T11:04:58;86178.16;;;22.33;38.82
41312;BME280;27061;41.648;24.568;2023-10-08T11:07:47;86184.09;;;22.41;38.30
41312;BME280;27061;41.648;24.568;2023-10-08T11:10:15;86165.91;;;22.38;38.54
41312;BME280;27061;41.648;24.568;2023-10-08T11:12:43;86133.84;;;22.16;38.37
41312;BME280;27061;41.648;24.568;2023-10-08T11:15:14;86156.28;;;22.33;37.55
41312;BME280;27061;41.648;24.568;2023-10-08T11:17:44;86166.84;;;22.47;37.54
41312;BME280;27061;41.648;24.568;2023-10-08T11:20:28;86161.13;;;22.49;38.51
41312;BME280;27061;41.648;24.568;2023-10-08T11:22:57;86170.25;;;22.64;38.46
41312;BME280;27061;41.648;24.568;2023-10-08T11:25:58;86144.22;;;22.35;37.98
41312;BME280;27061;41.648;24.568;2023-10-08T11:28:34;86174.22;;;22.70;nan
41312;BME280;27061;41.648;24.568;2023-10-08T11:31:04;86107.50;;;22.22;36.65
41312;BME280;27061;41.648;24.568;2023-10-08T11:33:37;86182.00;;;22.69;36.80
41312;BME280;27061;41.648;24.568;2023-10-08T11:36:07;86180.16;;;22.63;37.00
41312;BME280;27061;41.648;24.568;2023-10-08T11:38:46;86169.75;;;22.60;36.67
41312;BME280;27061;41.648;24.568;2023-10-08T11:41:18;86181.31;;;22.69;36.86
41312;BME280;27061;41.648;24.568;2023-10-08T11:43:52;86146.50;;;22.59;38.35
41312;BME280;27061;41.648;24.568;2023-10-08T11:46:27;86147.78;;;22.62;36.86
41312;BME280;27061;41.648;24.568;2023-10-08T11:49:00;86164.88;;;22.73;35.75
41312;BME280;27061;41.648;24.568;2023-10-08T11:51:35;86165.91;;;22.95;35.55
41312;BME280;27061;41.648;24.568;2023-10-08T11:54:02;86122.97;;;22.65;37.68
41312;BME280;27061;41.648;24.568;2023-10-08T11:56:32;86150.75;;;22.88;37.01
41312;BME280;27061;41.648;24.568;2023-10-08T11:59:05;86142.97;;;22.74;37.10
41312;BME280;27061;41.648;24.568;2023-10-08T12:01:36;86117.84;;;22.55;36.16
41312;BME280;27061;41.648;24.568;2023-10-08T12:04:05;86124.03;;;22.57;35.61
41312;BME280;27061;41.648;24.568;2023-10-08T12:06:40;86126.25;;;22.70;36.61
41312;BME280;27061;41.648;24.568;2023-10-08T12:09:14;86168.81;;;22.93;35.66
41312;BME280;27061;41.648;24.568;2023-10-08T12:11:42;86162.03;;;22.88;35.66
41312;BME280;27061;41.648;24.568;2023-10-08T12:14:09;86114.59;;;22.63;35.87
41312;BME280;27061;41.648;24.568;2023-10-08T12:16:38;86141.28;;;22.93;35.87
41312;BME280;27061;41.648;24.568;2023-10-08T12:19:07;86127.88;;;22.79;35.92
41312;BME280;27061;41.648;24.568;2023-10-08T12:21:45;86165.97;;;23.08;36.14
41312;BME280;27061;41.648;24.568;2023-10-08T12:24:14;86146.25;;;22.93;34.29
41312;BME280;27061;41.648;24.568;2023-10-08T12:26:42;86128.28;;;22.71;36.19
41312;BME280;27061;41.648;24.568;2023-10-08T12:29:16;86111.66;;;22.65;35.78
41312;BME280;27061;41.648;24.568;2023-10-08T12:31:46;86145.41;;;22.82;34.77
41312;BME280;27061;41.648;24.568;2023-10-08T12:34:15;86143.63;;;22.89;35.66
41312;BME280;27061;41.648;24.568;2023-10-08T12:36:44;86127.69;;;22.83;35.65
41312;BME280;27061;41.648;24.568;2023-10-08T12:39:12;86147.19;;;23.02;37.04
41312;BME280;27061;41.648;24.568;2023-10-08T12:41:43;86132.09;;;23.08;36.06
41312;BME280;27061;41.648;24.568;2023-10-08T12:44:12;86138.19;;;23.12;34.65
41312;BME280;27061;41.648;24.568;2023-10-08T12:46:40;86140.56;;;23.20;35.50
41312;BME280;27061;41.648;24.568;2023-10-08T12:49:11;86105.16;;;22.96;35.58
41312;BME280;27061;41.648;24.568;2023-10-08T12:51:45;86058.59;;;22.55;33.79
41312;BME280;27061;41.648;24.568;2023-10-08T12:54:12;86079.63;;;22.71;34.57
41312;BME280;27061;41.648;24.568;2023-10-08T12:56:48;86064.78;;;22.57;34.87
41312;BME280;27061;41.648;24.568;2023-10-08T12:59:18;86109.03;;;22.76;34.59
41312;BME280;27061;41.648;24.568;2023-10-08T13:01:51;86132.03;;;22.95;35.21
41312;BME280;27061;41.648;24.568;2023-10-08T13:04:22;86123.47;;;22.97;34.47
41312;BME280;27061;41.648;24.568;2023-10-08T13:06:57;85954.31;;;21.41;33.77
41312;BME280;27061;41.648;24.568;2023-10-08T13:09:29;86124.38;;;22.79;34.47
41312;BME280;27061;41.648;24.568;2023-10-08T13:12:04;85972.13;;;21.38;34.57
41312;BME280;27061;41.648;24.568;2023-10-08T13:14:32;86044.59;;;21.96;34.58
41312;BME280;27061;41.648;24.568;2023-10-08T13:17:05;86099.56;;;22.39;34.75
41312;BME280;27061;41.648;24.568;2023-10-08T13:19:38;86128.94;;;22.44;34.47
41312;BME280;27061;41.648;24.568;2023-10-08T13:22:05;86125.72;;;22.38;35.65
41312;BME280;27061;41.648;24.568;2023-10-08T13:24:34;86075.53;;;22.13;35.37
41312;BME280;27061;41.648;24.568;2023-10-08T13:27:02;86060.56;;;22.02;34.66
41312;BME280;27061;41.648;24.568;2023-10-08T13:29:34;86035.28;;;21.85;34.21